createdAt,value
2018-04-01T00:01:18.946Z,94.25
2018-04-01T00:03:46.365Z,94.50
2018-04-01T00:06:13.820Z,94.79
2018-04-01T00:08:41.244Z,94.86
2018-04-01T00:11:08.836Z,94.17
2018-04-01T00:13:36.263Z,94.38
2018-04-01T00:16:03.693Z,94.65
2018-04-01T00:18:31.173Z,94.20
2018-04-01T00:20:58.607Z,94.35
2018-04-01T00:23:26.026Z,94.53
2018-04-01T00:25:53.449Z,94.72
2018-04-01T00:28:20.891Z,94.68
2018-04-01T00:30:48.371Z,95.11
2018-04-01T00:33:15.786Z,94.79
2018-04-01T00:35:43.237Z,94.78
2018-04-01T00:38:10.657Z,94.42
2018-04-01T00:40:38.072Z,94.54
2018-04-01T00:43:05.487Z,94.22
2018-04-01T00:45:32.901Z,94.65
2018-04-01T00:48:00.345Z,94.43
2018-04-01T00:50:27.765Z,94.42
2018-04-01T00:52:55.212Z,94.59
2018-04-01T00:55:22.638Z,94.62
2018-04-01T00:57:50.053Z,94.88
2018-04-01T01:00:18.592Z,94.52
2018-04-01T01:02:46.033Z,94.65
2018-04-01T01:05:13.452Z,94.48
2018-04-01T01:07:40.845Z,95.10
2018-04-01T01:10:08.275Z,94.95
2018-04-01T01:12:35.682Z,94.45
2018-04-01T01:15:03.105Z,94.74
2018-04-01T01:17:30.541Z,94.40
2018-04-01T01:19:57.971Z,94.81
2018-04-01T01:22:25.376Z,94.83
2018-04-01T01:24:52.849Z,95.18
2018-04-01T01:27:20.268Z,95.06
2018-04-01T01:29:47.674Z,95.24
2018-04-01T01:32:15.096Z,94.75
2018-04-01T01:34:42.524Z,94.89
2018-04-01T01:37:09.946Z,94.94
2018-04-01T01:39:37.369Z,94.23
2018-04-01T01:42:04.795Z,94.97
2018-04-01T01:44:32.215Z,95.10
2018-04-01T01:46:59.624Z,95.17
2018-04-01T01:49:27.087Z,95.14
2018-04-01T01:51:54.503Z,95.07
2018-04-01T01:54:21.921Z,94.96
2018-04-01T01:56:49.337Z,95.12
2018-04-01T01:59:16.775Z,95.30
2018-04-01T02:01:44.204Z,94.89
2018-04-01T02:04:11.624Z,95.39
2018-04-01T02:06:39.393Z,95.07
2018-04-01T02:09:07.313Z,95.28
2018-04-01T02:11:36.040Z,95.12
2018-04-01T02:14:03.513Z,95.52
2018-04-01T02:16:30.951Z,95.42
2018-04-01T02:18:58.457Z,95.59
2018-04-01T02:21:25.942Z,95.16
2018-04-01T02:23:53.367Z,95.01
2018-04-01T02:26:21.201Z,95.52
2018-04-01T02:28:48.645Z,95.49
2018-04-01T02:31:16.069Z,95.72
2018-04-01T02:33:43.504Z,95.68
2018-04-01T02:36:10.947Z,95.88
2018-04-01T02:38:38.380Z,95.94
2018-04-01T02:41:05.834Z,96.04
2018-04-01T02:43:33.336Z,95.74
2018-04-01T02:46:00.756Z,95.65
2018-04-01T02:51:47.007Z,95.63
2018-04-01T02:54:14.455Z,95.58
2018-04-01T02:56:41.850Z,95.47
2018-04-01T02:59:09.273Z,95.87
2018-04-01T03:01:36.714Z,96.18
2018-04-01T03:04:04.122Z,95.92
2018-04-01T03:06:31.603Z,95.84
2018-04-01T03:08:59.017Z,95.77
2018-04-01T03:11:26.438Z,95.66
2018-04-01T03:13:53.848Z,95.53
2018-04-01T03:16:21.238Z,95.91
2018-04-01T03:18:48.679Z,95.65
2018-04-01T03:21:16.200Z,95.91
2018-04-01T03:23:43.636Z,95.52
2018-04-01T03:26:11.054Z,95.72
2018-04-01T03:28:38.485Z,95.88
2018-04-01T03:31:05.906Z,95.63
2018-04-01T03:33:33.979Z,95.71
2018-04-01T03:36:01.541Z,95.78
2018-04-01T03:38:29.301Z,96.22
2018-04-01T03:40:57.788Z,96.29
2018-04-01T03:43:25.220Z,96.07
2018-04-01T03:45:52.666Z,96.29
2018-04-01T03:48:20.061Z,96.17
2018-04-01T03:50:47.486Z,96.07
2018-04-01T03:53:14.923Z,96.29
2018-04-01T03:55:42.337Z,96.20
2018-04-01T03:58:10.179Z,96.31
2018-04-01T04:00:38.507Z,96.39
2018-04-01T04:03:05.936Z,96.02
2018-04-01T04:05:33.364Z,95.94
2018-04-01T04:08:00.847Z,95.93
2018-04-01T04:10:28.308Z,96.05
2018-04-01T04:12:55.706Z,96.34
2018-04-01T04:37:50.611Z,96.29
2018-04-01T04:40:18.078Z,96.42
2018-04-01T04:42:45.598Z,96.28
2018-04-01T04:45:13.096Z,96.18
2018-04-01T04:47:40.579Z,96.04
2018-04-01T04:50:08.121Z,95.91
2018-04-01T04:52:35.681Z,96.46
2018-04-01T04:55:03.179Z,96.26
2018-04-01T04:57:31.204Z,96.29
2018-04-01T04:59:59.121Z,95.85
2018-04-01T05:02:26.617Z,96.11
2018-04-01T05:04:54.093Z,96.31
2018-04-01T05:07:21.694Z,96.20
2018-04-01T05:09:49.232Z,96.56
2018-04-01T05:12:16.722Z,96.21
2018-04-01T05:14:44.248Z,96.46
2018-04-01T05:17:11.779Z,96.35
2018-04-01T05:19:39.299Z,96.31
2018-04-01T05:22:06.800Z,96.20
2018-04-01T05:24:35.001Z,96.54
2018-04-01T05:27:03.002Z,96.62
2018-04-01T05:29:30.505Z,96.63
2018-04-01T05:31:58.183Z,96.85
2018-04-01T05:34:25.696Z,96.91
2018-04-01T05:36:53.157Z,96.63
2018-04-01T05:39:20.610Z,96.39
2018-04-01T05:41:48.076Z,96.37
2018-04-01T05:44:15.620Z,96.40
2018-04-01T05:46:43.093Z,96.35
2018-04-01T05:49:10.549Z,96.42
2018-04-01T05:51:38.033Z,96.34
2018-04-01T05:54:05.546Z,96.49
2018-04-01T05:56:32.978Z,96.18
2018-04-01T05:59:00.461Z,96.23
2018-04-01T06:01:27.934Z,96.27
2018-04-01T06:03:55.396Z,95.90
2018-04-01T06:06:22.828Z,95.91
2018-04-01T06:08:50.320Z,96.01
2018-04-01T06:11:17.903Z,96.09
2018-04-01T06:13:45.415Z,96.04
2018-04-01T06:16:12.848Z,96.45
2018-04-01T06:18:40.325Z,98.09
2018-04-01T06:21:07.815Z,96.75
2018-04-01T06:23:35.347Z,95.81
2018-04-01T06:26:02.799Z,95.62
2018-04-01T06:28:30.304Z,95.69
2018-04-01T06:30:57.819Z,95.51
2018-04-01T06:33:25.278Z,96.09
2018-04-01T06:35:52.726Z,95.70
2018-04-01T06:38:20.594Z,95.64
2018-04-01T06:40:48.090Z,95.26
2018-04-01T06:43:15.652Z,95.72
2018-04-01T06:45:43.189Z,95.20
2018-04-01T06:48:10.627Z,95.50
2018-04-01T06:50:38.146Z,95.35
2018-04-01T06:53:06.020Z,95.48
2018-04-01T06:55:33.510Z,95.32
2018-04-01T06:58:01.008Z,95.52
2018-04-01T07:00:28.483Z,95.72
2018-04-01T07:02:56.332Z,95.42
2018-04-01T07:05:23.951Z,95.55
2018-04-01T07:07:51.403Z,95.25
2018-04-01T07:10:18.898Z,95.26
2018-04-01T07:12:46.383Z,95.46
2018-04-01T07:15:13.938Z,95.17
2018-04-01T07:17:41.401Z,95.49
2018-04-01T07:20:08.909Z,95.85
2018-04-01T07:22:36.460Z,95.92
2018-04-01T07:25:03.915Z,95.42
2018-04-01T07:27:31.376Z,95.74
2018-04-01T07:29:58.939Z,96.87
2018-04-01T07:32:26.433Z,95.72
2018-04-01T07:34:54.028Z,96.59
2018-04-01T07:37:21.760Z,95.22
2018-04-01T07:39:49.278Z,93.26
2018-04-01T07:42:16.906Z,93.46
2018-04-01T07:44:44.348Z,94.01
2018-04-01T07:47:11.889Z,93.14
2018-04-01T07:49:39.369Z,94.07
2018-04-01T07:52:06.872Z,94.85
2018-04-01T07:54:34.333Z,93.42
2018-04-01T07:57:01.781Z,93.10
2018-04-01T07:59:29.246Z,93.07
2018-04-01T08:01:56.701Z,93.16
2018-04-01T08:04:24.188Z,92.88
2018-04-01T08:06:51.914Z,93.13
2018-04-01T08:09:19.374Z,93.39
2018-04-01T08:11:46.850Z,93.39
2018-04-01T08:14:14.396Z,93.47
2018-04-01T08:16:41.852Z,93.33
2018-04-01T08:19:09.410Z,92.61
2018-04-01T08:21:36.883Z,93.35
2018-04-01T08:24:04.430Z,92.89
2018-04-01T08:26:31.955Z,92.52
2018-04-01T08:28:59.587Z,92.47
2018-04-01T08:31:27.214Z,93.07
2018-04-01T08:33:54.878Z,93.01
2018-04-01T08:36:22.851Z,93.63
2018-04-01T08:38:50.310Z,93.85
2018-04-01T08:41:17.858Z,93.37
2018-04-01T08:43:45.560Z,92.27
2018-04-01T08:46:13.038Z,92.78
2018-04-01T08:48:40.498Z,92.96
2018-04-01T08:51:07.959Z,93.12
2018-04-01T08:53:36.239Z,93.63
2018-04-01T08:56:03.806Z,93.28
2018-04-01T08:58:34.035Z,93.94
2018-04-01T09:01:01.487Z,93.59
2018-04-01T09:03:29.044Z,93.46
2018-04-01T09:05:56.531Z,92.99
2018-04-01T09:08:24.049Z,92.24
2018-04-01T09:10:51.681Z,92.88
2018-04-01T09:13:19.162Z,92.14
2018-04-01T09:15:46.660Z,92.75
2018-04-01T09:18:14.156Z,93.01
2018-04-01T09:20:41.865Z,92.37
2018-04-01T09:23:09.726Z,92.29
2018-04-01T09:25:37.166Z,92.79
2018-04-01T09:28:04.705Z,91.76
2018-04-01T09:30:32.156Z,91.95
2018-04-01T09:32:59.729Z,91.54
2018-04-01T09:35:27.206Z,90.78
2018-04-01T09:37:54.758Z,90.67
2018-04-01T09:40:22.293Z,90.48
2018-04-01T09:42:49.988Z,91.13
2018-04-01T09:45:17.469Z,90.18
2018-04-01T09:47:44.946Z,90.45
2018-04-01T09:50:12.476Z,90.21
2018-04-01T09:52:40.015Z,89.82
2018-04-01T09:55:07.565Z,91.06
2018-04-01T09:57:35.026Z,91.08
2018-04-01T10:00:02.512Z,89.63
2018-04-01T10:02:30.517Z,90.01
2018-04-01T10:05:11.351Z,88.83
2018-04-01T10:07:39.293Z,86.82
2018-04-01T10:10:11.246Z,87.45
2018-04-01T10:12:41.087Z,86.32
2018-04-01T10:15:09.098Z,87.11
2018-04-01T10:17:37.069Z,85.48
2018-04-01T10:20:05.144Z,85.37
2018-04-01T10:22:33.216Z,83.41
2018-04-01T10:25:01.287Z,85.04
2018-04-01T10:27:29.323Z,84.89
2018-04-01T10:29:57.463Z,84.67
2018-04-01T10:32:26.314Z,84.65
2018-04-01T10:34:54.341Z,84.79
2018-04-01T10:37:22.393Z,83.80
2018-04-01T10:39:50.576Z,90.12
2018-04-01T10:42:18.574Z,83.81
2018-04-01T10:44:46.886Z,83.20
2018-04-01T10:47:14.831Z,83.61
2018-04-01T10:49:42.801Z,83.03
2018-04-01T10:52:10.883Z,83.42
2018-04-01T10:54:38.386Z,82.58
2018-04-01T10:57:06.368Z,81.52
2018-04-01T10:59:33.803Z,81.58
2018-04-01T11:02:01.361Z,82.39
2018-04-01T11:04:28.821Z,82.20
2018-04-01T11:06:56.293Z,82.03
2018-04-01T11:09:23.813Z,82.65
2018-04-01T11:11:51.271Z,82.85
2018-04-01T11:14:18.734Z,83.74
2018-04-01T11:16:46.192Z,82.57
2018-04-01T11:19:13.696Z,84.30
2018-04-01T11:21:41.159Z,83.90
2018-04-01T11:24:08.780Z,84.23
2018-04-01T11:26:36.355Z,85.59
2018-04-01T11:29:03.783Z,85.96
2018-04-01T11:31:31.362Z,86.61
2018-04-01T11:33:58.876Z,86.58
2018-04-01T11:36:26.356Z,85.96
2018-04-01T11:38:53.814Z,86.12
2018-04-01T11:41:21.334Z,85.73
2018-04-01T11:43:48.822Z,86.17
2018-04-01T11:46:16.305Z,87.09
2018-04-01T11:48:43.856Z,86.25
2018-04-01T11:51:11.270Z,86.48
2018-04-01T11:53:38.808Z,86.12
2018-04-01T11:56:06.282Z,87.27
2018-04-01T11:58:33.923Z,87.74
2018-04-01T12:01:01.412Z,87.00
2018-04-01T12:03:29.233Z,86.79
2018-04-01T12:05:56.786Z,86.84
2018-04-01T12:08:24.244Z,87.73
2018-04-01T12:10:51.741Z,88.08
2018-04-01T12:13:19.265Z,88.57
2018-04-01T12:15:46.752Z,88.17
2018-04-01T12:18:14.295Z,89.95
2018-04-01T12:20:41.770Z,89.18
2018-04-01T12:23:09.646Z,89.70
2018-04-01T12:25:37.147Z,90.18
2018-04-01T12:28:04.729Z,90.74
2018-04-01T12:30:32.227Z,90.21
2018-04-01T12:32:59.708Z,91.13
2018-04-01T12:35:27.178Z,90.60
2018-04-01T12:37:54.759Z,90.67
2018-04-01T12:40:22.375Z,90.74
2018-04-01T12:42:49.884Z,90.27
2018-04-01T12:45:17.396Z,90.41
2018-04-01T12:47:44.938Z,89.83
2018-04-01T12:50:12.457Z,90.08
2018-04-01T12:52:39.944Z,90.34
2018-04-01T12:55:07.458Z,90.26
2018-04-01T12:57:34.930Z,89.79
2018-04-01T13:00:02.398Z,90.08
2018-04-01T13:02:29.850Z,89.93
2018-04-01T13:04:57.330Z,90.07
2018-04-01T13:07:25.667Z,89.99
2018-04-01T13:09:53.142Z,89.96
2018-04-01T13:12:20.639Z,89.90
2018-04-01T13:14:48.139Z,89.34
2018-04-01T13:17:15.697Z,89.09
2018-04-01T13:19:43.150Z,89.22
2018-04-01T13:22:10.636Z,89.45
2018-04-01T13:24:38.186Z,89.49
2018-04-01T13:27:05.615Z,89.33
2018-04-01T13:29:33.179Z,89.50
2018-04-01T13:32:00.643Z,88.66
2018-04-01T13:34:28.124Z,89.38
2018-04-01T13:36:55.676Z,89.82
2018-04-01T13:39:23.173Z,89.50
2018-04-01T13:41:50.675Z,89.89
2018-04-01T13:44:18.190Z,89.20
2018-04-01T13:46:45.795Z,89.46
2018-04-01T13:49:13.391Z,89.31
2018-04-01T13:51:40.903Z,89.72
2018-04-01T13:54:08.362Z,88.83
2018-04-01T13:56:35.855Z,88.70
2018-04-01T13:59:03.414Z,88.39
2018-04-01T14:01:30.898Z,87.94
2018-04-01T14:03:58.470Z,88.51
2018-04-01T14:06:26.023Z,88.67
2018-04-01T14:08:53.582Z,88.67
2018-04-01T14:11:21.085Z,88.38
2018-04-01T14:13:48.574Z,88.60
2018-04-01T14:16:16.112Z,87.87
2018-04-01T14:18:43.615Z,88.39
2018-04-01T14:21:11.143Z,88.19
2018-04-01T14:23:38.781Z,88.37
2018-04-01T14:26:06.275Z,88.02
2018-04-01T14:28:33.781Z,87.95
2018-04-01T14:31:01.426Z,87.90
2018-04-01T14:33:28.940Z,87.66
2018-04-01T14:35:56.454Z,88.21
2018-04-01T14:38:23.996Z,87.98
2018-04-01T14:40:51.463Z,87.07
2018-04-01T14:43:18.990Z,86.51
2018-04-01T14:45:46.412Z,85.84
2018-04-01T14:48:13.866Z,85.26
2018-04-01T14:50:41.393Z,85.34
2018-04-01T14:53:08.965Z,85.20
2018-04-01T14:55:36.443Z,84.66
2018-04-01T14:58:04.048Z,84.56
2018-04-01T15:00:31.573Z,84.97
2018-04-01T15:02:59.103Z,84.86
2018-04-01T15:05:26.660Z,84.64
2018-04-01T15:07:54.207Z,85.19
2018-04-01T15:10:21.869Z,85.00
2018-04-01T15:12:49.335Z,85.13
2018-04-01T15:15:16.812Z,85.31
2018-04-01T15:17:44.276Z,85.15
2018-04-01T15:20:11.811Z,85.32
2018-04-01T15:22:39.342Z,85.94
2018-04-01T15:25:06.752Z,85.61
2018-04-01T15:27:34.333Z,86.02
2018-04-01T15:30:01.756Z,86.58
2018-04-01T15:32:29.297Z,87.81
2018-04-01T15:34:56.784Z,87.83
2018-04-01T15:37:24.232Z,88.73
2018-04-01T15:39:51.676Z,88.65
2018-04-01T15:42:19.138Z,88.10
2018-04-01T15:44:46.623Z,89.06
2018-04-01T15:47:14.149Z,89.75
2018-04-01T15:49:41.585Z,89.25
2018-04-01T15:52:09.100Z,88.61
2018-04-01T15:54:36.576Z,89.82
2018-04-01T15:57:04.052Z,90.21
2018-04-01T15:59:31.516Z,89.12
2018-04-01T16:01:59.061Z,89.37
2018-04-01T16:04:26.507Z,89.50
2018-04-01T16:06:53.944Z,88.45
2018-04-01T16:09:21.407Z,88.99
2018-04-01T16:11:48.873Z,89.17
2018-04-01T16:14:16.321Z,88.15
2018-04-01T16:16:43.791Z,87.54
2018-04-01T16:19:11.314Z,87.22
2018-04-01T16:21:38.739Z,85.85
2018-04-01T16:24:06.163Z,86.49
2018-04-01T16:26:33.629Z,84.58
2018-04-01T16:29:01.063Z,83.61
2018-04-01T16:31:28.553Z,83.08
2018-04-01T16:33:56.014Z,82.82
2018-04-01T16:36:23.458Z,83.37
2018-04-01T16:38:50.879Z,83.32
2018-04-01T16:41:18.351Z,83.44
2018-04-01T16:43:45.917Z,83.26
2018-04-01T16:46:13.399Z,82.95
2018-04-01T16:48:40.854Z,83.34
2018-04-01T16:51:08.377Z,83.49
2018-04-01T16:53:35.835Z,83.78
2018-04-01T16:56:03.294Z,83.41
2018-04-01T16:58:30.750Z,83.37
2018-04-01T17:00:58.184Z,82.91
2018-04-01T17:03:25.641Z,83.45
2018-04-01T17:05:53.047Z,83.74
2018-04-01T17:08:20.501Z,83.39
2018-04-01T17:10:47.931Z,84.06
2018-04-01T17:13:15.372Z,84.07
2018-04-01T17:15:42.833Z,83.53
2018-04-01T17:18:10.258Z,83.83
2018-04-01T17:20:37.702Z,84.39
2018-04-01T17:23:05.139Z,84.45
2018-04-01T17:25:32.593Z,84.52
2018-04-01T17:28:00.088Z,84.64
2018-04-01T17:30:27.582Z,84.25
2018-04-01T17:32:55.070Z,84.15
2018-04-01T17:35:22.538Z,84.48
2018-04-01T17:37:50.012Z,84.20
2018-04-01T17:40:17.447Z,84.55
2018-04-01T17:42:45.010Z,84.45
2018-04-01T17:45:12.443Z,84.47
2018-04-01T17:47:39.968Z,84.70
2018-04-01T17:50:07.437Z,84.97
2018-04-01T17:52:34.933Z,84.29
2018-04-01T17:55:02.400Z,84.92
2018-04-01T17:57:29.916Z,84.62
2018-04-01T17:59:57.408Z,84.64
2018-04-01T18:02:25.081Z,84.92
2018-04-01T18:04:52.554Z,85.29
2018-04-01T18:07:20.111Z,85.05
2018-04-01T18:09:47.559Z,85.42
2018-04-01T18:12:15.031Z,85.65
2018-04-01T18:14:42.550Z,86.12
2018-04-01T18:17:10.111Z,86.03
2018-04-01T18:19:37.894Z,86.48
2018-04-01T18:22:05.458Z,86.53
2018-04-01T18:27:06.782Z,85.88
2018-04-01T18:29:34.417Z,85.79
2018-04-01T18:32:01.898Z,85.67
2018-04-01T18:34:29.441Z,85.05
2018-04-01T18:36:56.899Z,84.80
2018-04-01T18:39:24.327Z,84.78
2018-04-01T18:41:51.881Z,84.11
2018-04-01T18:44:19.491Z,84.21
2018-04-01T18:46:47.052Z,83.75
2018-04-01T18:49:14.518Z,83.39
2018-04-01T18:51:42.003Z,84.23
2018-04-01T18:54:09.534Z,84.19
2018-04-01T18:56:36.981Z,83.19
2018-04-01T18:59:04.481Z,81.69
2018-04-01T19:01:31.958Z,81.02
2018-04-01T19:03:59.423Z,80.43
2018-04-01T19:06:26.936Z,80.11
2018-04-01T19:08:54.422Z,79.98
2018-04-01T19:11:21.909Z,80.48
2018-04-01T19:13:49.432Z,80.91
2018-04-01T19:16:17.370Z,81.14
2018-04-01T19:18:45.299Z,81.41
2018-04-01T19:21:13.318Z,81.37
2018-04-01T19:23:41.270Z,81.79
2018-04-01T19:26:09.377Z,81.73
2018-04-01T19:28:37.344Z,81.62
2018-04-01T19:31:05.314Z,81.62
2018-04-01T19:33:33.272Z,81.94
2018-04-01T19:36:01.238Z,81.84
2018-04-01T19:38:29.944Z,81.56
2018-04-01T19:40:57.918Z,82.38
2018-04-01T19:43:25.862Z,82.55
2018-04-01T19:45:53.898Z,81.56
2018-04-01T19:48:21.964Z,81.31
2018-04-01T19:50:49.974Z,82.31
2018-04-01T19:53:17.931Z,82.42
2018-04-01T19:55:45.910Z,82.72
2018-04-01T19:58:13.863Z,83.03
2018-04-01T20:00:41.831Z,82.81
2018-04-01T20:03:09.778Z,83.21
2018-04-01T20:05:37.778Z,83.27
2018-04-01T20:08:05.796Z,83.55
2018-04-01T20:10:33.890Z,84.10
2018-04-01T20:13:01.832Z,83.95
2018-04-01T20:15:29.824Z,83.78
2018-04-01T20:17:57.811Z,84.32
2018-04-01T20:20:25.770Z,84.55
2018-04-01T20:22:53.701Z,84.66
2018-04-01T20:25:21.716Z,84.15
2018-04-01T20:27:49.662Z,83.71
2018-04-01T20:30:17.637Z,84.37
2018-04-01T20:32:45.610Z,83.89
2018-04-01T20:35:13.590Z,83.51
2018-04-01T20:37:41.656Z,84.20
2018-04-01T20:40:09.664Z,84.17
2018-04-01T20:42:37.657Z,83.84
2018-04-01T20:47:40.202Z,84.11
2018-04-01T20:50:08.290Z,84.98
2018-04-01T20:52:36.238Z,85.72
2018-04-01T20:55:04.375Z,84.51
2018-04-01T20:57:32.379Z,85.20
2018-04-01T21:00:00.402Z,85.87
2018-04-01T21:02:28.347Z,85.90
2018-04-01T21:04:56.420Z,86.80
2018-04-01T21:07:24.470Z,86.83
2018-04-01T21:09:52.502Z,87.21
2018-04-01T21:12:20.667Z,86.99
2018-04-01T21:14:48.667Z,87.09
2018-04-01T21:17:16.601Z,86.77
2018-04-01T21:19:44.638Z,86.69
2018-04-01T21:22:12.614Z,86.48
2018-04-01T21:24:40.608Z,86.32
2018-04-01T21:27:08.581Z,86.49
2018-04-01T21:29:36.564Z,86.38
2018-04-01T21:32:04.502Z,86.53
2018-04-01T21:34:32.536Z,86.66
2018-04-01T21:37:00.481Z,85.84
2018-04-01T21:39:28.472Z,86.03
2018-04-01T21:41:56.506Z,85.75
2018-04-01T21:44:24.435Z,86.30
2018-04-01T21:46:52.419Z,85.84
2018-04-01T21:49:20.476Z,85.55
2018-04-01T21:51:48.479Z,85.71
2018-04-01T21:54:16.456Z,85.80
2018-04-01T21:56:44.427Z,86.14
2018-04-01T21:59:12.398Z,86.32
2018-04-01T22:01:40.400Z,87.05
2018-04-01T22:04:08.372Z,87.07
2018-04-01T22:06:36.322Z,86.01
2018-04-01T22:09:05.237Z,86.38
2018-04-01T22:11:33.261Z,86.24
2018-04-01T22:14:01.331Z,89.58
2018-04-01T22:16:29.300Z,85.58
2018-04-01T22:18:57.274Z,85.74
2018-04-01T22:21:25.368Z,86.08
2018-04-01T22:23:53.329Z,86.48
2018-04-01T22:26:22.986Z,86.65
2018-04-01T22:28:51.017Z,86.06
2018-04-01T22:31:18.954Z,85.83
2018-04-01T22:33:47.054Z,85.56
2018-04-01T22:36:15.958Z,85.31
2018-04-01T22:38:43.918Z,85.22
2018-04-01T22:41:11.905Z,85.02
2018-04-01T22:43:41.045Z,85.26
2018-04-01T22:46:09.033Z,85.30
2018-04-01T22:48:37.228Z,84.73
2018-04-01T22:51:05.296Z,85.01
2018-04-01T22:53:33.547Z,84.59
2018-04-01T22:56:01.519Z,85.10
2018-04-01T22:58:29.530Z,85.32
2018-04-01T23:00:57.507Z,85.14
2018-04-01T23:03:25.457Z,85.02
2018-04-01T23:05:53.425Z,85.58
2018-04-01T23:08:21.377Z,84.84
2018-04-01T23:10:49.452Z,85.37
2018-04-01T23:13:17.507Z,84.85
2018-04-01T23:15:46.418Z,84.72
2018-04-01T23:18:14.602Z,84.93
2018-04-01T23:20:42.563Z,83.42
2018-04-01T23:23:10.581Z,83.59
2018-04-01T23:25:38.551Z,82.93
2018-04-01T23:28:06.518Z,83.62
2018-04-01T23:30:34.532Z,83.25
2018-04-01T23:33:02.566Z,82.10
2018-04-01T23:35:30.569Z,82.07
2018-04-01T23:37:58.504Z,82.46
2018-04-01T23:40:26.449Z,81.88
2018-04-01T23:42:54.449Z,80.99
2018-04-01T23:45:22.549Z,81.28
2018-04-01T23:47:50.484Z,80.88
2018-04-01T23:50:18.429Z,80.90
2018-04-01T23:52:46.435Z,81.10
2018-04-01T23:55:14.384Z,80.95
2018-04-01T23:57:42.356Z,81.07
